createdAt,value
2022-10-22T00:00:48.159Z,816.41
2022-10-22T00:01:48.170Z,816.36
2022-10-22T00:02:48.224Z,816.37
2022-10-22T00:03:48.192Z,816.29
2022-10-22T00:04:48.237Z,816.29
2022-10-22T00:05:48.215Z,816.35
2022-10-22T00:06:48.229Z,816.40
2022-10-22T00:07:48.237Z,816.47
2022-10-22T00:08:48.302Z,816.50
2022-10-22T00:09:48.262Z,816.39
2022-10-22T00:10:48.276Z,816.37
2022-10-22T00:11:48.386Z,816.37
2022-10-22T00:12:48.297Z,816.44
2022-10-22T00:13:48.352Z,816.43
2022-10-22T00:14:48.320Z,816.44
2022-10-22T00:15:48.334Z,816.43
2022-10-22T00:16:48.347Z,816.45
2022-10-22T00:17:48.354Z,816.44
2022-10-22T00:18:48.372Z,816.51
2022-10-22T00:19:48.375Z,816.53
2022-10-22T00:20:48.407Z,816.54
2022-10-22T00:21:48.402Z,816.52
2022-10-22T00:22:48.467Z,816.61
2022-10-22T00:23:48.423Z,816.65
2022-10-22T00:24:48.435Z,816.66
2022-10-22T00:25:48.445Z,816.72
2022-10-22T00:26:48.457Z,816.77
2022-10-22T00:27:48.479Z,816.79
2022-10-22T00:28:48.480Z,816.87
2022-10-22T00:29:48.491Z,816.85
2022-10-22T00:30:48.507Z,816.83
2022-10-22T00:31:48.555Z,816.85
2022-10-22T00:32:48.529Z,816.86
2022-10-22T00:33:48.538Z,816.88
2022-10-22T00:34:48.553Z,816.90
2022-10-22T00:35:48.566Z,816.89
2022-10-22T00:36:48.642Z,816.94
2022-10-22T00:37:48.582Z,816.94
2022-10-22T00:38:48.595Z,816.94
2022-10-22T00:39:48.605Z,816.92
2022-10-22T00:40:48.650Z,816.92
2022-10-22T00:41:48.631Z,816.94
2022-10-22T00:42:48.643Z,816.96
2022-10-22T00:43:48.651Z,816.97
2022-10-22T00:44:48.663Z,817.00
2022-10-22T00:45:48.673Z,817.07
2022-10-22T00:46:48.688Z,817.05
2022-10-22T00:47:48.695Z,817.11
2022-10-22T00:48:48.711Z,817.12
2022-10-22T00:49:48.720Z,817.09
2022-10-22T00:50:48.734Z,817.11
2022-10-22T00:51:48.743Z,817.13
2022-10-22T00:52:48.774Z,817.12
2022-10-22T00:53:48.764Z,817.14
2022-10-22T00:54:48.781Z,817.14
2022-10-22T00:55:48.787Z,817.13
2022-10-22T00:56:48.802Z,817.10
2022-10-22T00:57:48.815Z,817.15
2022-10-22T00:58:48.829Z,817.24
2022-10-22T00:59:48.834Z,817.25
2022-10-22T01:00:48.879Z,817.27
2022-10-22T01:01:48.869Z,817.19
2022-10-22T01:02:48.868Z,817.17
2022-10-22T01:03:48.884Z,817.19
2022-10-22T01:04:48.898Z,817.19
2022-10-22T01:05:48.902Z,817.19
2022-10-22T01:06:49.017Z,817.20
2022-10-22T01:07:48.928Z,817.17
2022-10-22T01:08:49.023Z,817.16
2022-10-22T01:09:48.950Z,817.15
2022-10-22T01:10:48.962Z,817.20
2022-10-22T01:11:48.971Z,817.17
2022-10-22T01:12:48.982Z,817.21
2022-10-22T01:13:48.997Z,817.19
2022-10-22T01:14:49.008Z,817.21
2022-10-22T01:15:49.016Z,817.19
2022-10-22T01:16:49.032Z,817.18
2022-10-22T01:17:49.039Z,817.18
2022-10-22T01:18:49.054Z,817.17
2022-10-22T01:19:49.073Z,817.21
2022-10-22T01:20:49.074Z,817.20
2022-10-22T01:21:49.082Z,817.21
2022-10-22T01:22:49.199Z,817.18
2022-10-22T01:23:49.149Z,817.18
2022-10-22T01:24:49.137Z,817.14
2022-10-22T01:25:49.132Z,817.14
2022-10-22T01:26:49.142Z,817.19
2022-10-22T01:27:49.151Z,817.23
2022-10-22T01:28:49.165Z,817.27
2022-10-22T01:29:49.188Z,817.30
2022-10-22T01:30:49.193Z,817.29
2022-10-22T01:31:49.193Z,817.28
2022-10-22T01:32:49.209Z,817.25
2022-10-22T01:33:49.214Z,817.25
2022-10-22T01:34:49.229Z,817.23
2022-10-22T01:35:49.236Z,817.25
2022-10-22T01:36:49.250Z,817.25
2022-10-22T01:37:49.370Z,817.28
2022-10-22T01:38:49.271Z,817.25
2022-10-22T01:39:49.280Z,817.21
2022-10-22T01:40:49.312Z,817.23
2022-10-22T01:41:49.304Z,817.19
2022-10-22T01:42:49.316Z,817.22
2022-10-22T01:43:49.326Z,817.21
2022-10-22T01:44:49.337Z,817.18
2022-10-22T01:45:49.347Z,817.20
2022-10-22T01:46:49.359Z,817.25
2022-10-22T01:47:49.367Z,817.25
2022-10-22T01:48:49.432Z,817.31
2022-10-22T01:49:49.389Z,817.27
2022-10-22T01:50:49.404Z,817.31
2022-10-22T01:51:49.410Z,817.31
2022-10-22T01:52:49.423Z,817.29
2022-10-22T01:53:49.434Z,817.29
2022-10-22T01:54:49.446Z,817.24
2022-10-22T01:55:49.463Z,817.26
2022-10-22T01:56:49.496Z,817.30
2022-10-22T01:57:49.476Z,817.24
2022-10-22T01:58:49.491Z,817.28
2022-10-22T01:59:49.500Z,817.29
2022-10-22T02:00:49.557Z,817.25
2022-10-22T02:01:49.523Z,817.26
2022-10-22T02:02:49.544Z,817.33
2022-10-22T02:03:49.549Z,817.36
2022-10-22T02:04:49.553Z,817.33
2022-10-22T02:05:49.562Z,817.22
2022-10-22T02:06:49.580Z,817.21
2022-10-22T02:07:49.589Z,817.18
2022-10-22T02:08:49.663Z,817.14
2022-10-22T02:09:49.713Z,817.19
2022-10-22T02:10:49.640Z,817.21
2022-10-22T02:11:49.624Z,817.21
2022-10-22T02:12:49.657Z,817.19
2022-10-22T02:13:49.652Z,817.16
2022-10-22T02:14:49.661Z,817.13
2022-10-22T02:15:49.668Z,817.11
2022-10-22T02:16:49.719Z,817.13
2022-10-22T02:17:49.691Z,817.10
2022-10-22T02:18:49.704Z,817.08
2022-10-22T02:19:49.717Z,817.03
2022-10-22T02:20:49.725Z,817.01
2022-10-22T02:21:49.735Z,816.94
2022-10-22T02:22:49.752Z,816.96
2022-10-22T02:23:49.753Z,816.94
2022-10-22T02:24:49.766Z,816.89
2022-10-22T02:25:49.777Z,816.92
2022-10-22T02:26:49.789Z,816.93
2022-10-22T02:27:49.796Z,816.98
2022-10-22T02:28:49.833Z,817.03
2022-10-22T02:29:49.815Z,817.03
2022-10-22T02:30:49.832Z,817.00
2022-10-22T02:31:49.841Z,817.00
2022-10-22T02:32:49.961Z,816.94
2022-10-22T02:33:49.861Z,816.96
2022-10-22T02:34:49.871Z,816.97
2022-10-22T02:35:49.879Z,816.98
2022-10-22T02:36:50.569Z,816.97
2022-10-22T02:37:49.904Z,816.91
2022-10-22T02:38:49.915Z,816.91
2022-10-22T02:39:49.925Z,816.91
2022-10-22T02:40:49.938Z,816.85
2022-10-22T02:41:49.949Z,816.89
2022-10-22T02:42:49.958Z,816.86
2022-10-22T02:43:49.966Z,816.78
2022-10-22T02:44:50.000Z,816.75
2022-10-22T02:45:49.986Z,816.70
2022-10-22T02:46:49.999Z,816.75
2022-10-22T02:47:50.025Z,816.77
2022-10-22T02:48:50.027Z,816.80
2022-10-22T02:49:50.031Z,816.84
2022-10-22T02:50:50.047Z,816.89
2022-10-22T02:51:50.051Z,816.93
2022-10-22T02:52:50.163Z,816.90
2022-10-22T02:53:50.076Z,816.91
2022-10-22T02:54:50.086Z,816.85
2022-10-22T02:55:50.092Z,816.79
2022-10-22T02:56:50.106Z,816.77
2022-10-22T02:57:50.114Z,816.73
2022-10-22T02:58:50.126Z,816.69
2022-10-22T02:59:50.136Z,816.70
2022-10-22T03:00:50.254Z,816.73
2022-10-22T03:01:50.157Z,816.76
2022-10-22T03:02:50.168Z,816.71
2022-10-22T03:03:50.176Z,816.65
2022-10-22T03:04:50.190Z,816.65
2022-10-22T03:05:50.200Z,816.60
2022-10-22T03:06:50.212Z,816.53
2022-10-22T03:07:50.218Z,816.62
2022-10-22T03:08:50.333Z,816.66
2022-10-22T03:09:50.242Z,816.67
2022-10-22T03:10:50.353Z,816.66
2022-10-22T03:11:50.264Z,816.67
2022-10-22T03:12:50.273Z,816.71
2022-10-22T03:13:50.285Z,816.77
2022-10-22T03:14:50.295Z,816.82
2022-10-22T03:15:50.304Z,816.84
2022-10-22T03:16:50.334Z,816.82
2022-10-22T03:17:50.327Z,816.82
2022-10-22T03:18:50.344Z,816.83
2022-10-22T03:19:50.351Z,816.84
2022-10-22T03:20:50.357Z,816.80
2022-10-22T03:21:50.384Z,816.84
2022-10-22T03:22:50.379Z,816.84
2022-10-22T03:23:50.394Z,816.85
2022-10-22T03:24:50.398Z,816.88
2022-10-22T03:25:50.503Z,816.86
2022-10-22T03:26:50.423Z,816.92
2022-10-22T03:27:50.434Z,816.92
2022-10-22T03:28:50.442Z,816.89
2022-10-22T03:29:50.454Z,816.88
2022-10-22T03:30:50.463Z,816.87
2022-10-22T03:31:50.475Z,816.85
2022-10-22T03:32:50.502Z,816.88
2022-10-22T03:33:50.543Z,816.87
2022-10-22T03:34:50.612Z,816.85
2022-10-22T03:35:50.518Z,816.89
2022-10-22T03:36:50.527Z,816.89
2022-10-22T03:37:50.539Z,816.88
2022-10-22T03:38:50.551Z,816.91
2022-10-22T03:39:50.560Z,816.96
2022-10-22T03:40:50.572Z,816.96
2022-10-22T03:41:50.585Z,816.93
2022-10-22T03:42:50.589Z,816.98
2022-10-22T03:43:50.607Z,816.96
2022-10-22T03:44:50.612Z,816.95
2022-10-22T03:45:50.628Z,816.96
2022-10-22T03:46:50.633Z,816.95
2022-10-22T03:47:50.645Z,816.95
2022-10-22T03:48:50.672Z,816.94
2022-10-22T03:49:50.666Z,816.97
2022-10-22T03:50:50.679Z,817.00
2022-10-22T03:51:50.690Z,817.06
2022-10-22T03:52:50.696Z,817.11
2022-10-22T03:53:50.711Z,817.13
2022-10-22T03:54:50.717Z,817.10
2022-10-22T03:55:50.732Z,817.11
2022-10-22T03:56:50.741Z,817.12
2022-10-22T03:57:50.756Z,817.09
2022-10-22T03:58:50.765Z,817.10
2022-10-22T03:59:50.778Z,817.14
2022-10-22T04:00:50.887Z,817.13
2022-10-22T04:01:50.795Z,817.14
2022-10-22T04:02:50.803Z,817.15
2022-10-22T04:03:50.816Z,817.15
2022-10-22T04:04:50.847Z,817.16
2022-10-22T04:05:50.840Z,817.13
2022-10-22T04:06:50.846Z,817.10
2022-10-22T04:07:50.881Z,817.08
2022-10-22T04:08:50.916Z,817.08
2022-10-22T04:09:50.880Z,817.09
2022-10-22T04:10:50.891Z,817.11
2022-10-22T04:11:50.901Z,817.11
2022-10-22T04:12:50.910Z,817.12
2022-10-22T04:13:50.924Z,817.11
2022-10-22T04:14:50.936Z,817.15
2022-10-22T04:15:50.949Z,817.19
2022-10-22T04:16:50.954Z,817.15
2022-10-22T04:17:50.969Z,817.18
2022-10-22T04:18:50.983Z,817.19
2022-10-22T04:19:50.999Z,817.21
2022-10-22T04:20:51.017Z,817.22
2022-10-22T04:21:51.010Z,817.26
2022-10-22T04:22:51.033Z,817.23
2022-10-22T04:23:51.031Z,817.30
2022-10-22T04:25:51.055Z,817.24
2022-10-22T04:26:51.062Z,817.30
2022-10-22T04:27:51.080Z,817.30
2022-10-22T04:28:51.087Z,817.32
2022-10-22T04:29:51.098Z,817.35
2022-10-22T04:30:51.108Z,817.36
2022-10-22T04:31:51.118Z,817.38
2022-10-22T04:32:51.127Z,817.39
2022-10-22T04:33:51.139Z,817.41
2022-10-22T04:34:51.147Z,817.45
2022-10-22T04:35:51.173Z,817.47
2022-10-22T04:36:51.201Z,817.45
2022-10-22T04:37:51.181Z,817.50
2022-10-22T04:38:51.188Z,817.49
2022-10-22T04:39:51.210Z,817.56
2022-10-22T04:40:51.221Z,817.59
2022-10-22T04:41:51.225Z,817.63
2022-10-22T04:42:51.231Z,817.66
2022-10-22T04:43:51.244Z,817.65
2022-10-22T04:44:51.253Z,817.70
2022-10-22T04:45:51.310Z,817.66
2022-10-22T04:46:51.274Z,817.70
2022-10-22T04:47:51.296Z,817.73
2022-10-22T04:48:51.294Z,817.71
2022-10-22T04:49:51.308Z,817.74
2022-10-22T04:50:51.326Z,817.74
2022-10-22T04:51:51.325Z,817.76
2022-10-22T04:52:51.356Z,817.81
2022-10-22T04:53:51.352Z,817.82
2022-10-22T04:54:51.362Z,817.82
2022-10-22T04:55:51.373Z,817.78
2022-10-22T04:56:51.391Z,817.79
2022-10-22T04:57:51.392Z,817.78
2022-10-22T04:58:51.401Z,817.80
2022-10-22T04:59:51.411Z,817.81
2022-10-22T05:00:51.440Z,817.81
2022-10-22T05:01:51.434Z,817.80
2022-10-22T05:02:51.441Z,817.80
2022-10-22T05:03:51.453Z,817.81
2022-10-22T05:04:51.461Z,817.83
2022-10-22T05:05:51.474Z,817.82
2022-10-22T05:06:51.482Z,817.87
2022-10-22T05:07:51.494Z,817.86
2022-10-22T05:08:51.586Z,817.87
2022-10-22T05:09:51.516Z,817.82
2022-10-22T05:10:51.526Z,817.85
2022-10-22T05:11:51.537Z,817.86
2022-10-22T05:12:51.556Z,817.86
2022-10-22T05:13:51.608Z,817.86
2022-10-22T05:14:51.563Z,817.88
2022-10-22T05:15:51.577Z,817.87
2022-10-22T05:16:51.585Z,817.90
2022-10-22T05:17:51.608Z,817.91
2022-10-22T05:18:51.609Z,817.89
2022-10-22T05:19:51.625Z,817.87
2022-10-22T05:20:51.626Z,817.91
2022-10-22T05:21:51.643Z,817.87
2022-10-22T05:22:51.648Z,817.87
2022-10-22T05:23:51.662Z,817.81
2022-10-22T05:24:51.685Z,817.83
2022-10-22T05:25:51.678Z,817.83
2022-10-22T05:26:51.690Z,817.85
2022-10-22T05:27:51.699Z,817.82
2022-10-22T05:28:51.717Z,817.90
2022-10-22T05:29:51.720Z,817.90
2022-10-22T05:30:51.731Z,817.89
2022-10-22T05:31:51.740Z,817.91
2022-10-22T05:32:51.753Z,817.94
2022-10-22T05:33:51.761Z,817.94
2022-10-22T05:34:51.771Z,817.93
2022-10-22T05:35:51.783Z,817.89
2022-10-22T05:36:51.798Z,817.91
2022-10-22T05:37:51.849Z,817.92
2022-10-22T05:38:51.812Z,817.94
2022-10-22T05:40:01.739Z,817.97
2022-10-22T05:40:51.852Z,817.96
2022-10-22T05:41:51.843Z,817.94
2022-10-22T05:42:51.876Z,817.92
2022-10-22T05:43:51.865Z,817.95
2022-10-22T05:44:51.875Z,817.95
2022-10-22T05:45:51.983Z,817.96
2022-10-22T05:46:51.916Z,817.91
2022-10-22T05:47:51.906Z,817.93
2022-10-22T05:48:51.916Z,817.94
2022-10-22T05:49:51.927Z,817.94
2022-10-22T05:50:51.936Z,817.92
2022-10-22T05:51:51.965Z,817.89
2022-10-22T05:52:51.960Z,817.85
2022-10-22T05:53:51.975Z,817.84
2022-10-22T05:54:51.986Z,817.89
2022-10-22T05:55:51.985Z,817.95
2022-10-22T05:56:52.015Z,817.97
2022-10-22T05:57:52.015Z,818.01
2022-10-22T05:58:52.153Z,818.05
2022-10-22T05:59:52.029Z,818.04
2022-10-22T06:00:52.036Z,818.07
2022-10-22T06:01:52.116Z,818.06
2022-10-22T06:02:52.063Z,818.04
2022-10-22T06:03:52.067Z,818.07
2022-10-22T06:04:52.077Z,818.07
2022-10-22T06:05:52.089Z,818.07
2022-10-22T06:06:52.108Z,818.13
2022-10-22T06:07:52.109Z,818.14
2022-10-22T06:08:52.155Z,818.17
2022-10-22T06:09:52.130Z,818.15
2022-10-22T06:10:52.237Z,818.12
2022-10-22T06:11:52.150Z,818.14
2022-10-22T06:12:52.177Z,818.12
2022-10-22T06:13:52.169Z,818.12
2022-10-22T06:14:52.179Z,818.09
2022-10-22T06:15:52.188Z,818.06
2022-10-22T06:16:52.197Z,818.03
2022-10-22T06:17:52.212Z,818.03
2022-10-22T06:18:52.221Z,817.99
2022-10-22T06:19:52.281Z,818.04
2022-10-22T06:20:52.239Z,818.00
2022-10-22T06:21:52.255Z,818.02
2022-10-22T06:22:52.257Z,818.02
2022-10-22T06:23:52.269Z,818.04
2022-10-22T06:24:52.279Z,818.08
2022-10-22T06:25:52.290Z,818.06
2022-10-22T06:26:52.301Z,818.07
2022-10-22T06:27:52.310Z,818.09
2022-10-22T06:28:52.341Z,818.11
2022-10-22T06:29:52.332Z,818.11
2022-10-22T06:30:52.340Z,818.14
2022-10-22T06:31:52.351Z,818.16
2022-10-22T06:32:52.361Z,818.19
2022-10-22T06:33:52.375Z,818.17
2022-10-22T06:34:52.380Z,818.17
2022-10-22T06:35:52.411Z,818.19
2022-10-22T06:36:52.399Z,818.24
2022-10-22T06:37:52.413Z,818.28
2022-10-22T06:38:52.433Z,818.25
2022-10-22T06:39:52.436Z,818.28
2022-10-22T06:40:52.441Z,818.25
2022-10-22T06:41:52.455Z,818.30
2022-10-22T06:42:52.468Z,818.32
2022-10-22T06:43:52.474Z,818.34
2022-10-22T06:44:52.523Z,818.39
2022-10-22T06:45:52.602Z,818.34
2022-10-22T06:46:52.505Z,818.35
2022-10-22T06:47:52.513Z,818.38
2022-10-22T06:48:52.522Z,818.40
2022-10-22T06:49:52.534Z,818.47
2022-10-22T06:50:52.542Z,818.39
2022-10-22T06:51:52.567Z,818.41
2022-10-22T06:52:52.564Z,818.39
2022-10-22T06:53:52.573Z,818.37
2022-10-22T06:54:52.581Z,818.35
2022-10-22T06:55:52.598Z,818.39
2022-10-22T06:56:52.603Z,818.40
2022-10-22T06:57:52.613Z,818.39
2022-10-22T06:58:52.623Z,818.39
2022-10-22T06:59:52.637Z,818.38
2022-10-22T07:00:52.696Z,818.39
2022-10-22T07:01:52.722Z,818.38
2022-10-22T07:02:56.357Z,818.39
2022-10-22T07:03:52.673Z,818.36
2022-10-22T07:04:52.682Z,818.34
2022-10-22T07:05:52.695Z,818.34
2022-10-22T07:06:52.706Z,818.38
2022-10-22T07:07:52.720Z,818.43
2022-10-22T07:08:52.846Z,818.40
2022-10-22T07:09:52.740Z,818.45
2022-10-22T07:10:52.742Z,818.43
2022-10-22T07:11:52.756Z,818.46
2022-10-22T07:12:52.762Z,818.45
2022-10-22T07:13:52.876Z,818.49
2022-10-22T07:14:52.783Z,818.52
2022-10-22T07:15:52.794Z,818.55
2022-10-22T07:16:52.819Z,818.59
2022-10-22T07:17:52.825Z,818.63
2022-10-22T07:18:52.861Z,818.61
2022-10-22T07:19:52.834Z,818.66
2022-10-22T07:20:52.843Z,818.69
2022-10-22T07:21:52.854Z,818.68
2022-10-22T07:22:52.862Z,818.70
2022-10-22T07:23:52.872Z,818.71
2022-10-22T07:24:52.881Z,818.77
2022-10-22T07:25:52.925Z,818.79
2022-10-22T07:26:52.902Z,818.79
2022-10-22T07:27:52.914Z,818.79
2022-10-22T07:28:52.921Z,818.83
2022-10-22T07:29:52.933Z,818.85
2022-10-22T07:30:52.943Z,818.85
2022-10-22T07:31:52.951Z,818.86
2022-10-22T07:32:52.982Z,818.88
2022-10-22T07:33:52.977Z,818.86
2022-10-22T07:34:52.983Z,818.86
2022-10-22T07:35:52.990Z,818.86
2022-10-22T07:36:53.001Z,818.84
2022-10-22T07:37:53.012Z,818.84
2022-10-22T07:38:53.072Z,818.85
2022-10-22T07:39:53.029Z,818.83
2022-10-22T07:40:53.043Z,818.83
2022-10-22T07:41:53.052Z,818.82
2022-10-22T07:42:53.061Z,818.84
2022-10-22T07:43:53.071Z,818.82
2022-10-22T07:44:53.106Z,818.84
2022-10-22T07:45:53.090Z,818.85
2022-10-22T07:46:53.109Z,818.83
2022-10-22T07:47:53.111Z,818.84
2022-10-22T07:48:53.142Z,818.81
2022-10-22T07:49:53.233Z,818.78
2022-10-22T07:50:53.153Z,818.75
2022-10-22T07:51:53.154Z,818.75
2022-10-22T07:52:54.862Z,818.78
2022-10-22T07:53:53.184Z,818.82
2022-10-22T07:54:53.193Z,818.84
2022-10-22T07:55:53.196Z,818.84
2022-10-22T07:56:53.220Z,818.87
2022-10-22T07:57:53.217Z,818.88
2022-10-22T07:58:53.287Z,818.83
2022-10-22T07:59:53.337Z,818.87
2022-10-22T08:00:53.247Z,818.87
2022-10-22T08:01:53.258Z,818.88
2022-10-22T08:02:53.272Z,818.87
2022-10-22T08:03:53.278Z,818.92
2022-10-22T08:04:53.309Z,818.89
2022-10-22T08:05:53.300Z,818.88
2022-10-22T08:06:53.310Z,818.93
2022-10-22T08:07:53.325Z,818.88
2022-10-22T08:08:53.384Z,818.90
2022-10-22T08:09:53.341Z,818.85
2022-10-22T08:10:53.355Z,818.87
2022-10-22T08:11:53.363Z,818.87
2022-10-22T08:12:53.377Z,818.83
2022-10-22T08:13:53.384Z,818.85
2022-10-22T08:14:53.398Z,818.87
2022-10-22T08:15:56.559Z,818.87
2022-10-22T08:16:53.419Z,818.89
2022-10-22T08:17:53.428Z,818.86
2022-10-22T08:18:53.440Z,818.85
2022-10-22T08:19:53.450Z,818.84
2022-10-22T08:20:53.480Z,818.84
2022-10-22T08:21:53.474Z,818.82
2022-10-22T08:22:53.485Z,818.85
2022-10-22T08:23:53.610Z,818.86
2022-10-22T08:24:53.505Z,818.85
2022-10-22T08:25:53.525Z,818.87
2022-10-22T08:26:53.529Z,818.84
2022-10-22T08:27:53.538Z,818.81
2022-10-22T08:28:53.549Z,818.79
2022-10-22T08:29:53.558Z,818.80
2022-10-22T08:30:53.594Z,818.77
2022-10-22T08:31:53.588Z,818.78
2022-10-22T08:32:54.134Z,818.76
2022-10-22T08:33:53.602Z,818.77
2022-10-22T08:34:53.618Z,818.81
2022-10-22T08:35:53.625Z,818.79
2022-10-22T08:36:53.657Z,818.80
2022-10-22T08:37:53.651Z,818.78
2022-10-22T08:38:53.663Z,818.82
2022-10-22T08:39:53.670Z,818.82
2022-10-22T08:40:53.686Z,818.82
2022-10-22T08:41:53.696Z,818.82
2022-10-22T08:42:53.707Z,818.78
2022-10-22T08:43:53.719Z,818.80
2022-10-22T08:44:53.729Z,818.80
2022-10-22T08:45:53.738Z,818.82
2022-10-22T08:46:53.751Z,818.78
2022-10-22T08:47:53.758Z,818.80
2022-10-22T08:48:53.951Z,818.78
2022-10-22T08:49:53.784Z,818.77
2022-10-22T08:50:53.795Z,818.74
2022-10-22T08:51:53.806Z,818.77
2022-10-22T08:52:53.843Z,818.77
2022-10-22T08:53:53.833Z,818.79
2022-10-22T08:54:53.841Z,818.78
2022-10-22T08:55:53.852Z,818.79
2022-10-22T08:56:53.868Z,818.75
2022-10-22T08:57:53.882Z,818.77
2022-10-22T08:58:53.889Z,818.78
2022-10-22T08:59:53.904Z,818.77
2022-10-22T09:00:54.010Z,818.80
2022-10-22T09:01:53.922Z,818.79
2022-10-22T09:02:53.933Z,818.79
2022-10-22T09:03:53.946Z,818.85
2022-10-22T09:04:53.955Z,818.88
2022-10-22T09:05:54.071Z,818.87
2022-10-22T09:06:54.487Z,818.89
2022-10-22T09:07:53.997Z,818.91
2022-10-22T09:08:54.081Z,818.90
2022-10-22T09:09:54.014Z,818.90
2022-10-22T09:10:54.034Z,818.92
2022-10-22T09:11:54.051Z,818.94
2022-10-22T09:12:54.049Z,818.92
2022-10-22T09:13:54.079Z,818.93
2022-10-22T09:14:54.074Z,818.93
2022-10-22T09:15:54.083Z,818.95
2022-10-22T09:16:54.102Z,818.98
2022-10-22T09:17:54.108Z,818.94
2022-10-22T09:18:54.123Z,818.96
2022-10-22T09:19:54.131Z,818.97
2022-10-22T09:20:54.142Z,818.96
2022-10-22T09:21:54.161Z,818.94
2022-10-22T09:22:54.168Z,818.95
2022-10-22T09:23:54.175Z,818.95
2022-10-22T09:24:54.211Z,818.95
2022-10-22T09:25:54.201Z,818.96
2022-10-22T09:26:54.220Z,818.96
2022-10-22T09:27:54.227Z,819.00
2022-10-22T09:28:54.238Z,818.98
2022-10-22T09:29:54.252Z,819.02
2022-10-22T09:30:54.335Z,818.99
2022-10-22T09:31:54.277Z,818.99
2022-10-22T09:32:54.295Z,819.02
2022-10-22T09:33:54.306Z,819.02
2022-10-22T09:34:54.313Z,819.03
2022-10-22T09:35:54.325Z,819.03
2022-10-22T09:36:54.356Z,819.03
2022-10-22T09:37:54.349Z,819.06
2022-10-22T09:38:54.376Z,819.07
2022-10-22T09:39:54.376Z,819.07
2022-10-22T09:40:54.408Z,819.07
2022-10-22T09:41:54.399Z,819.08
2022-10-22T09:42:54.417Z,819.06
2022-10-22T09:43:54.424Z,819.14
2022-10-22T09:44:54.539Z,819.10
2022-10-22T09:45:54.450Z,819.11
2022-10-22T09:46:54.475Z,819.16
2022-10-22T09:48:01.959Z,819.12
2022-10-22T09:48:54.508Z,819.10
2022-10-22T09:49:54.512Z,819.12
2022-10-22T09:50:54.516Z,819.12
2022-10-22T09:51:54.527Z,819.16
2022-10-22T09:52:54.541Z,819.15
2022-10-22T09:53:54.554Z,819.18
2022-10-22T09:54:54.667Z,819.18
2022-10-22T09:56:54.612Z,819.19
2022-10-22T09:57:54.618Z,819.21
2022-10-22T09:58:54.622Z,819.23
2022-10-22T09:59:54.634Z,819.21
2022-10-22T10:00:54.646Z,819.21
2022-10-22T10:01:54.662Z,819.24
2022-10-22T10:02:54.716Z,819.23
2022-10-22T10:03:54.688Z,819.23
2022-10-22T10:04:54.804Z,819.21
2022-10-22T10:05:54.722Z,819.22
2022-10-22T10:06:54.735Z,819.26
2022-10-22T10:07:54.744Z,819.27
2022-10-22T10:08:54.783Z,819.24
2022-10-22T10:09:54.771Z,819.24
2022-10-22T10:10:54.793Z,819.29
2022-10-22T10:11:54.799Z,819.27
2022-10-22T10:12:54.839Z,819.28
2022-10-22T10:13:54.927Z,819.25
2022-10-22T10:14:54.844Z,819.27
2022-10-22T10:15:54.853Z,819.28
2022-10-22T10:16:54.876Z,819.23
2022-10-22T10:17:54.882Z,819.26
2022-10-22T10:18:54.900Z,819.28
2022-10-22T10:19:55.715Z,819.29
2022-10-22T10:20:54.926Z,819.29
2022-10-22T10:21:54.943Z,819.31
2022-10-22T10:22:54.954Z,819.32
2022-10-22T10:23:54.970Z,819.29
2022-10-22T10:24:55.034Z,819.31
2022-10-22T10:25:54.995Z,819.31
2022-10-22T10:26:55.032Z,819.36
2022-10-22T10:27:55.024Z,819.35
2022-10-22T10:28:55.061Z,819.34
2022-10-22T10:29:55.060Z,819.40
2022-10-22T10:30:55.071Z,819.36
2022-10-22T10:31:55.083Z,819.37
2022-10-22T10:32:55.105Z,819.35
2022-10-22T10:33:55.132Z,819.34
2022-10-22T10:34:55.144Z,819.30
2022-10-22T10:35:55.172Z,819.30
2022-10-22T10:36:55.160Z,819.32
2022-10-22T10:37:55.231Z,819.31
2022-10-22T10:38:55.190Z,819.28
2022-10-22T10:39:55.207Z,819.29
2022-10-22T10:40:55.218Z,819.23
2022-10-22T10:41:55.233Z,819.27
2022-10-22T10:42:55.250Z,819.28
2022-10-22T10:43:55.262Z,819.22
2022-10-22T10:44:55.311Z,819.29
2022-10-22T10:45:55.874Z,819.28
2022-10-22T10:46:55.310Z,819.30
2022-10-22T10:47:55.320Z,819.28
2022-10-22T10:48:55.352Z,819.30
2022-10-22T10:49:55.454Z,819.29
2022-10-22T10:50:55.383Z,819.25
2022-10-22T10:51:55.383Z,819.26
2022-10-22T10:52:55.403Z,819.26
2022-10-22T10:53:55.413Z,819.29
2022-10-22T10:54:55.442Z,819.27
2022-10-22T10:55:55.441Z,819.26
2022-10-22T10:56:55.459Z,819.24
2022-10-22T10:57:55.471Z,819.28
2022-10-22T10:58:55.489Z,819.27
2022-10-22T10:59:55.502Z,819.26
2022-10-22T11:00:55.539Z,819.24
2022-10-22T11:01:55.590Z,819.28
2022-10-22T11:03:55.565Z,819.28
2022-10-22T11:04:55.581Z,819.26
2022-10-22T11:05:55.592Z,819.27
2022-10-22T11:07:05.901Z,819.30
2022-10-22T11:07:56.302Z,819.25
2022-10-22T11:08:55.681Z,819.29
2022-10-22T11:09:55.656Z,819.29
2022-10-22T11:10:55.673Z,819.29
2022-10-22T11:11:55.689Z,819.31
2022-10-22T11:12:55.807Z,819.31
2022-10-22T11:13:55.723Z,819.29
2022-10-22T11:14:55.736Z,819.34
2022-10-22T11:15:55.770Z,819.30
2022-10-22T11:16:55.784Z,819.32
2022-10-22T11:17:55.781Z,819.30
2022-10-22T11:18:55.803Z,819.30
2022-10-22T11:19:59.835Z,819.28
2022-10-22T11:20:55.832Z,819.29
2022-10-22T11:21:55.843Z,819.30
2022-10-22T11:23:18.077Z,819.32
2022-10-22T11:23:55.876Z,819.31
2022-10-22T11:24:55.893Z,819.28
2022-10-22T11:25:55.908Z,819.29
2022-10-22T11:26:55.926Z,819.28
2022-10-22T11:27:59.762Z,819.32
2022-10-22T11:28:55.976Z,819.30
2022-10-22T11:29:55.976Z,819.31
2022-10-22T11:30:55.995Z,819.32
2022-10-22T11:31:56.005Z,819.34
2022-10-22T11:32:56.041Z,819.32
2022-10-22T11:34:10.050Z,819.31
2022-10-22T11:34:56.055Z,819.34
2022-10-22T11:35:56.067Z,819.32
2022-10-22T11:36:56.094Z,819.33
2022-10-22T11:37:56.101Z,819.31
2022-10-22T11:38:56.118Z,819.30
2022-10-22T11:39:56.132Z,819.33
2022-10-22T11:40:56.149Z,819.31
2022-10-22T11:41:56.164Z,819.26
2022-10-22T11:42:56.182Z,819.25
2022-10-22T11:43:56.198Z,819.26
2022-10-22T11:44:56.220Z,819.24
2022-10-22T11:45:56.230Z,819.25
2022-10-22T11:46:56.254Z,819.27
2022-10-22T11:47:56.260Z,819.23
2022-10-22T11:48:56.295Z,819.26
2022-10-22T11:49:56.326Z,819.28
2022-10-22T11:50:56.309Z,819.27
2022-10-22T11:51:56.326Z,819.30
2022-10-22T11:52:56.346Z,819.24
2022-10-22T11:53:56.362Z,819.27
2022-10-22T11:54:56.376Z,819.21
2022-10-22T11:55:56.395Z,819.27
2022-10-22T11:56:56.406Z,819.25
2022-10-22T11:57:56.427Z,819.27
2022-10-22T11:58:56.441Z,819.24
2022-10-22T11:59:56.463Z,819.22
2022-10-22T12:00:56.479Z,819.22
2022-10-22T12:01:56.493Z,819.20
2022-10-22T12:02:56.508Z,819.21
2022-10-22T12:03:56.531Z,819.20
2022-10-22T12:04:56.627Z,819.21
2022-10-22T12:05:56.572Z,819.17
2022-10-22T12:06:56.575Z,819.25
2022-10-22T12:07:56.595Z,819.21
2022-10-22T12:08:56.744Z,819.24
2022-10-22T12:09:56.631Z,819.22
2022-10-22T12:10:56.647Z,819.28
2022-10-22T12:11:56.672Z,819.23
2022-10-22T12:12:56.678Z,819.23
2022-10-22T12:13:56.698Z,819.20
2022-10-22T12:14:56.716Z,819.22
2022-10-22T12:15:56.737Z,819.21
2022-10-22T12:16:57.673Z,819.22
2022-10-22T12:17:56.792Z,819.24
2022-10-22T12:18:56.784Z,819.21
2022-10-22T12:19:58.578Z,819.20
2022-10-22T12:20:56.840Z,819.19
2022-10-22T12:21:56.941Z,819.22
2022-10-22T12:22:56.855Z,819.18
2022-10-22T12:23:56.875Z,819.19
2022-10-22T12:24:56.898Z,819.21
2022-10-22T12:25:56.913Z,819.18
2022-10-22T12:26:57.028Z,819.20
2022-10-22T12:27:56.946Z,819.19
2022-10-22T12:28:56.972Z,819.19
2022-10-22T12:29:56.981Z,819.17
2022-10-22T12:30:57.001Z,819.21
2022-10-22T12:31:57.018Z,819.17